sensor_id;sensor_type;location;lat;lon;timestamp;pressure;altitude;pressure_sealevel;temperature;humidity
42285;BME280;27942;47.510;18.966;2022-11-04T00:00:52;-15451.47;;;8.36;100.00
42285;BME280;27942;47.510;18.966;2022-11-04T00:03:18;-15449.75;;;8.31;100.00
42285;BME280;27942;47.510;18.966;2022-11-04T00:05:43;-15448.81;;;8.28;100.00
42285;BME280;27942;47.510;18.966;2022-11-04T00:08:09;-15449.44;;;8.30;100.00
42285;BME280;27942;47.510;18.966;2022-11-04T00:10:55;-15448.66;;;8.27;100.00
42285;BME280;27942;47.510;18.966;2022-11-04T00:13:40;-15449.44;;;8.30;100.00
42285;BME280;27942;47.510;18.966;2022-11-04T00:16:05;-15447.88;;;8.25;100.00
42285;BME280;27942;47.510;18.966;2022-11-04T00:18:49;-15451.47;;;8.36;100.00
42285;BME280;27942;47.510;18.966;2022-11-04T00:21:15;-15447.72;;;8.24;100.00
42285;BME280;27942;47.510;18.966;2022-11-04T00:23:59;-15449.44;;;8.30;100.00
42285;BME280;27942;47.510;18.966;2022-11-04T00:26:42;-15449.44;;;8.30;100.00
42285;BME280;27942;47.510;18.966;2022-11-04T00:29:26;-15448.34;;;8.26;100.00
42285;BME280;27942;47.510;18.966;2022-11-04T00:31:52;-15448.66;;;8.27;100.00
42285;BME280;27942;47.510;18.966;2022-11-04T00:34:35;-15446.94;;;8.22;100.00
42285;BME280;27942;47.510;18.966;2022-11-04T00:37:01;-15449.13;;;8.29;100.00
42285;BME280;27942;47.510;18.966;2022-11-04T00:39:27;-15447.88;;;8.25;100.00
42285;BME280;27942;47.510;18.966;2022-11-04T00:41:53;-15447.56;;;8.24;100.00
42285;BME280;27942;47.510;18.966;2022-11-04T00:44:19;-15446.94;;;8.22;100.00
42285;BME280;27942;47.510;18.966;2022-11-04T00:46:44;-15448.81;;;8.28;100.00
42285;BME280;27942;47.510;18.966;2022-11-04T00:49:09;-15446.03;;;8.18;100.00
42285;BME280;27942;47.510;18.966;2022-11-04T00:51:35;-15447.25;;;8.23;100.00
42285;BME280;27942;47.510;18.966;2022-11-04T00:54:00;-15446.19;;;8.19;100.00
42285;BME280;27942;47.510;18.966;2022-11-04T00:56:26;-15448.50;;;8.27;100.00
42285;BME280;27942;47.510;18.966;2022-11-04T00:58:51;-15445.88;;;8.18;100.00
42285;BME280;27942;47.510;18.966;2022-11-04T01:01:17;-15448.97;;;8.28;100.00
42285;BME280;27942;47.510;18.966;2022-11-04T01:03:44;-15449.75;;;8.31;100.00
42285;BME280;27942;47.510;18.966;2022-11-04T01:06:10;-15448.34;;;8.26;100.00
42285;BME280;27942;47.510;18.966;2022-11-04T01:08:35;-15450.22;;;8.32;100.00
42285;BME280;27942;47.510;18.966;2022-11-04T01:11:04;-15449.91;;;8.31;100.00
42285;BME280;27942;47.510;18.966;2022-11-04T01:13:30;-15448.34;;;8.26;100.00
42285;BME280;27942;47.510;18.966;2022-11-04T01:15:58;-15450.22;;;8.32;100.00
42285;BME280;27942;47.510;18.966;2022-11-04T01:18:23;-15451.47;;;8.36;100.00
42285;BME280;27942;47.510;18.966;2022-11-04T01:20:48;-15451.94;;;8.38;100.00
42285;BME280;27942;47.510;18.966;2022-11-04T01:23:13;-15451.63;;;8.37;100.00
42285;BME280;27942;47.510;18.966;2022-11-04T01:25:39;-15448.50;;;8.27;100.00
42285;BME280;27942;47.510;18.966;2022-11-04T01:28:05;-15449.75;;;8.31;100.00
42285;BME280;27942;47.510;18.966;2022-11-04T01:30:31;-15450.84;;;8.34;100.00
42285;BME280;27942;47.510;18.966;2022-11-04T01:32:56;-15449.28;;;8.29;100.00
42285;BME280;27942;47.510;18.966;2022-11-04T01:35:21;-15449.59;;;8.30;100.00
42285;BME280;27942;47.510;18.966;2022-11-04T01:37:47;-15452.53;;;8.40;100.00
42285;BME280;27942;47.510;18.966;2022-11-04T01:40:12;-15450.84;;;8.34;100.00
42285;BME280;27942;47.510;18.966;2022-11-04T01:42:37;-15450.22;;;8.32;100.00
42285;BME280;27942;47.510;18.966;2022-11-04T01:45:03;-15451.28;;;8.36;100.00
42285;BME280;27942;47.510;18.966;2022-11-04T01:47:36;-15451.28;;;8.36;100.00
42285;BME280;27942;47.510;18.966;2022-11-04T01:50:08;-15452.09;;;8.38;100.00
42285;BME280;27942;47.510;18.966;2022-11-04T01:52:40;-15452.09;;;8.38;100.00
42285;BME280;27942;47.510;18.966;2022-11-04T01:55:15;-15452.09;;;8.38;100.00
42285;BME280;27942;47.510;18.966;2022-11-04T01:57:45;-15451.13;;;8.35;100.00
42285;BME280;27942;47.510;18.966;2022-11-04T02:00:12;-15452.22;;;8.39;100.00
42285;BME280;27942;47.510;18.966;2022-11-04T02:05:17;-15450.69;;;8.34;100.00
42285;BME280;27942;47.510;18.966;2022-11-04T02:07:43;-15452.53;;;8.40;100.00
42285;BME280;27942;47.510;18.966;2022-11-04T02:10:08;-15453.00;;;8.41;100.00
42285;BME280;27942;47.510;18.966;2022-11-04T02:12:34;-15451.00;;;8.35;100.00
42285;BME280;27942;47.510;18.966;2022-11-04T02:15:20;-15451.63;;;8.37;100.00
42285;BME280;27942;47.510;18.966;2022-11-04T02:23:22;-15453.78;;;8.44;100.00
42285;BME280;27942;47.510;18.966;2022-11-04T02:29:07;-15453.16;;;8.42;100.00
42285;BME280;27942;47.510;18.966;2022-11-04T02:31:43;-15452.09;;;8.38;100.00
42285;BME280;27942;47.510;18.966;2022-11-04T02:37:12;-15452.22;;;8.39;100.00
42285;BME280;27942;47.510;18.966;2022-11-04T02:39:52;-15449.91;;;8.31;100.00
42285;BME280;27942;47.510;18.966;2022-11-04T02:45:11;-15452.22;;;8.39;100.00
42285;BME280;27942;47.510;18.966;2022-11-04T02:47:43;-15450.69;;;8.34;100.00
42285;BME280;27942;47.510;18.966;2022-11-04T02:50:19;-15450.53;;;8.33;100.00
42285;BME280;27942;47.510;18.966;2022-11-04T02:52:58;-15449.13;;;8.29;100.00
42285;BME280;27942;47.510;18.966;2022-11-04T02:55:34;-15449.91;;;8.31;100.00
42285;BME280;27942;47.510;18.966;2022-11-04T02:58:04;-15451.00;;;8.35;100.00
42285;BME280;27942;47.510;18.966;2022-11-04T03:00:33;-15449.13;;;8.29;100.00
42285;BME280;27942;47.510;18.966;2022-11-04T03:03:00;-15448.81;;;8.28;100.00
42285;BME280;27942;47.510;18.966;2022-11-04T03:05:34;-15449.59;;;8.30;100.00
42285;BME280;27942;47.510;18.966;2022-11-04T03:08:07;-15447.09;;;8.22;100.00
42285;BME280;27942;47.510;18.966;2022-11-04T03:10:42;-15445.88;;;8.18;100.00
42285;BME280;27942;47.510;18.966;2022-11-04T03:13:11;-15449.13;;;8.29;100.00
42285;BME280;27942;47.510;18.966;2022-11-04T03:15:39;-15447.25;;;8.23;100.00
42285;BME280;27942;47.510;18.966;2022-11-04T03:18:31;-15447.72;;;8.24;100.00
42285;BME280;27942;47.510;18.966;2022-11-04T03:21:01;-15448.19;;;8.26;100.00
42285;BME280;27942;47.510;18.966;2022-11-04T03:23:26;-15447.72;;;8.24;100.00
42285;BME280;27942;47.510;18.966;2022-11-04T03:25:57;-15447.41;;;8.23;100.00
42285;BME280;27942;47.510;18.966;2022-11-04T03:31:40;-15446.34;;;8.19;100.00
42285;BME280;27942;47.510;18.966;2022-11-04T03:34:07;-15443.69;;;8.11;100.00
42285;BME280;27942;47.510;18.966;2022-11-04T03:36:33;-15444.31;;;8.13;100.00
42285;BME280;27942;47.510;18.966;2022-11-04T03:38:58;-15447.09;;;8.22;100.00
42285;BME280;27942;47.510;18.966;2022-11-04T03:41:34;-15446.34;;;8.19;100.00
42285;BME280;27942;47.510;18.966;2022-11-04T03:44:01;-15446.19;;;8.19;100.00
42285;BME280;27942;47.510;18.966;2022-11-04T03:46:26;-15446.50;;;8.20;100.00
42285;BME280;27942;47.510;18.966;2022-11-04T03:48:52;-15445.41;;;8.16;100.00
42285;BME280;27942;47.510;18.966;2022-11-04T03:51:18;-15445.72;;;8.17;100.00
42285;BME280;27942;47.510;18.966;2022-11-04T03:53:44;-15446.19;;;8.19;100.00
42285;BME280;27942;47.510;18.966;2022-11-04T03:56:37;-15446.78;;;8.21;100.00
42285;BME280;27942;47.510;18.966;2022-11-04T04:02:02;-15445.72;;;8.17;100.00
42285;BME280;27942;47.510;18.966;2022-11-04T04:04:36;-15443.22;;;8.09;100.00
42285;BME280;27942;47.510;18.966;2022-11-04T04:07:17;-15445.09;;;8.15;100.00
42285;BME280;27942;47.510;18.966;2022-11-04T04:09:54;-15445.72;;;8.17;100.00
42285;BME280;27942;47.510;18.966;2022-11-04T04:12:36;-15443.69;;;8.11;100.00
42285;BME280;27942;47.510;18.966;2022-11-04T04:15:12;-15442.59;;;8.07;100.00
42285;BME280;27942;47.510;18.966;2022-11-04T04:17:49;-15443.53;;;8.10;100.00
42285;BME280;27942;47.510;18.966;2022-11-04T04:20:22;-15443.38;;;8.10;100.00
42285;BME280;27942;47.510;18.966;2022-11-04T04:22:54;-15441.69;;;8.04;100.00
42285;BME280;27942;47.510;18.966;2022-11-04T04:25:24;-15439.50;;;7.97;100.00
42285;BME280;27942;47.510;18.966;2022-11-04T04:28:11;-15439.81;;;7.98;100.00
42285;BME280;27942;47.510;18.966;2022-11-04T04:30:38;-15439.34;;;7.97;100.00
42285;BME280;27942;47.510;18.966;2022-11-04T04:33:08;-15439.03;;;7.96;100.00
42285;BME280;27942;47.510;18.966;2022-11-04T04:35:42;-15436.41;;;7.87;100.00
42285;BME280;27942;47.510;18.966;2022-11-04T04:38:13;-15436.41;;;7.87;100.00
42285;BME280;27942;47.510;18.966;2022-11-04T04:41:09;-15437.66;;;7.91;100.00
42285;BME280;27942;47.510;18.966;2022-11-04T04:44:03;-15436.41;;;7.87;100.00
42285;BME280;27942;47.510;18.966;2022-11-04T04:46:50;-15434.22;;;7.80;100.00
42285;BME280;27942;47.510;18.966;2022-11-04T04:49:17;-15436.09;;;7.86;100.00
42285;BME280;27942;47.510;18.966;2022-11-04T04:51:46;-15435.63;;;7.84;100.00
42285;BME280;27942;47.510;18.966;2022-11-04T04:54:12;-15435.78;;;7.85;100.00
42285;BME280;27942;47.510;18.966;2022-11-04T04:56:37;-15435.31;;;7.83;100.00
42285;BME280;27942;47.510;18.966;2022-11-04T04:59:03;-15434.53;;;7.81;100.00
42285;BME280;27942;47.510;18.966;2022-11-04T05:01:29;-15434.53;;;7.81;100.00
42285;BME280;27942;47.510;18.966;2022-11-04T05:03:54;-15434.53;;;7.81;100.00
42285;BME280;27942;47.510;18.966;2022-11-04T05:06:19;-15436.09;;;7.86;100.00
42285;BME280;27942;47.510;18.966;2022-11-04T05:08:45;-15434.38;;;7.80;100.00
42285;BME280;27942;47.510;18.966;2022-11-04T05:11:10;-15435.63;;;7.84;100.00
42285;BME280;27942;47.510;18.966;2022-11-04T05:13:36;-15433.63;;;7.78;100.00
42285;BME280;27942;47.510;18.966;2022-11-04T05:16:04;-15433.78;;;7.78;100.00
42285;BME280;27942;47.510;18.966;2022-11-04T05:18:29;-15436.09;;;7.86;100.00
42285;BME280;27942;47.510;18.966;2022-11-04T05:20:55;-15434.38;;;7.80;100.00
42285;BME280;27942;47.510;18.966;2022-11-04T05:23:20;-15433.78;;;7.78;100.00
42285;BME280;27942;47.510;18.966;2022-11-04T05:25:46;-15435.31;;;7.83;100.00
42285;BME280;27942;47.510;18.966;2022-11-04T05:28:11;-15435.47;;;7.84;100.00
42285;BME280;27942;47.510;18.966;2022-11-04T05:30:37;-15432.69;;;7.75;100.00
42285;BME280;27942;47.510;18.966;2022-11-04T05:33:02;-15429.56;;;7.64;100.00
42285;BME280;27942;47.510;18.966;2022-11-04T05:35:28;-15432.69;;;7.75;100.00
42285;BME280;27942;47.510;18.966;2022-11-04T05:37:56;-15433.63;;;7.78;100.00
42285;BME280;27942;47.510;18.966;2022-11-04T05:40:22;-15430.97;;;7.69;100.00
42285;BME280;27942;47.510;18.966;2022-11-04T05:42:48;-15432.06;;;7.73;100.00
42285;BME280;27942;47.510;18.966;2022-11-04T05:45:13;-15429.88;;;7.65;100.00
42285;BME280;27942;47.510;18.966;2022-11-04T05:47:38;-15432.53;;;7.74;100.00
42285;BME280;27942;47.510;18.966;2022-11-04T05:50:04;-15430.81;;;7.68;100.00
42285;BME280;27942;47.510;18.966;2022-11-04T05:52:30;-15432.69;;;7.75;100.00
42285;BME280;27942;47.510;18.966;2022-11-04T05:54:55;-15432.38;;;7.74;100.00
42285;BME280;27942;47.510;18.966;2022-11-04T05:57:20;-15428.81;;;7.62;100.00
42285;BME280;27942;47.510;18.966;2022-11-04T05:59:46;-15428.97;;;7.62;100.00
42285;BME280;27942;47.510;18.966;2022-11-04T06:02:11;-15426.78;;;7.55;100.00
42285;BME280;27942;47.510;18.966;2022-11-04T06:04:37;-15427.41;;;7.57;100.00
42285;BME280;27942;47.510;18.966;2022-11-04T06:07:02;-15426.47;;;7.54;100.00
42285;BME280;27942;47.510;18.966;2022-11-04T06:09:28;-15428.81;;;7.62;100.00
42285;BME280;27942;47.510;18.966;2022-11-04T06:12:11;-15429.28;;;7.63;100.00
42285;BME280;27942;47.510;18.966;2022-11-04T06:14:39;-15425.09;;;7.50;100.00
42285;BME280;27942;47.510;18.966;2022-11-04T06:17:04;-15426.00;;;7.53;100.00
42285;BME280;27942;47.510;18.966;2022-11-04T06:19:30;-15425.84;;;7.52;100.00
42285;BME280;27942;47.510;18.966;2022-11-04T06:21:55;-15426.16;;;7.53;100.00
42285;BME280;27942;47.510;18.966;2022-11-04T06:24:20;-15428.34;;;7.60;100.00
42285;BME280;27942;47.510;18.966;2022-11-04T06:26:46;-15428.50;;;7.61;100.00
42285;BME280;27942;47.510;18.966;2022-11-04T06:29:11;-15426.78;;;7.55;100.00
42285;BME280;27942;47.510;18.966;2022-11-04T06:31:36;-15425.84;;;7.52;100.00
42285;BME280;27942;47.510;18.966;2022-11-04T06:34:02;-15427.88;;;7.59;100.00
42285;BME280;27942;47.510;18.966;2022-11-04T06:36:27;-15424.63;;;7.48;100.00
42285;BME280;27942;47.510;18.966;2022-11-04T06:38:53;-15425.38;;;7.51;100.00
42285;BME280;27942;47.510;18.966;2022-11-04T06:41:18;-15423.22;;;7.43;100.00
42285;BME280;27942;47.510;18.966;2022-11-04T06:43:44;-15425.69;;;7.52;100.00
42285;BME280;27942;47.510;18.966;2022-11-04T06:46:38;-15427.56;;;7.58;100.00
42285;BME280;27942;47.510;18.966;2022-11-04T06:49:06;-15427.72;;;7.58;100.00
42285;BME280;27942;47.510;18.966;2022-11-04T06:51:32;-15425.22;;;7.50;100.00
42285;BME280;27942;47.510;18.966;2022-11-04T06:53:57;-15425.84;;;7.52;100.00
42285;BME280;27942;47.510;18.966;2022-11-04T06:56:23;-15422.59;;;7.41;100.00
42285;BME280;27942;47.510;18.966;2022-11-04T06:58:50;-15422.91;;;7.42;100.00
42285;BME280;27942;47.510;18.966;2022-11-04T07:01:17;-15424.78;;;7.49;100.00
42285;BME280;27942;47.510;18.966;2022-11-04T07:03:43;-15424.63;;;7.48;100.00
42285;BME280;27942;47.510;18.966;2022-11-04T07:06:12;-15424.94;;;7.49;100.00
42285;BME280;27942;47.510;18.966;2022-11-04T07:08:37;-15425.38;;;7.51;100.00
42285;BME280;27942;47.510;18.966;2022-11-04T07:11:05;-15423.22;;;7.43;100.00
42285;BME280;27942;47.510;18.966;2022-11-04T07:13:31;-15424.00;;;7.46;100.00
42285;BME280;27942;47.510;18.966;2022-11-04T07:15:56;-15424.31;;;7.47;100.00
42285;BME280;27942;47.510;18.966;2022-11-04T07:18:22;-15424.94;;;7.49;100.00
42285;BME280;27942;47.510;18.966;2022-11-04T07:20:47;-15424.00;;;7.46;100.00
42285;BME280;27942;47.510;18.966;2022-11-04T07:23:13;-15423.69;;;7.45;100.00
42285;BME280;27942;47.510;18.966;2022-11-04T07:25:38;-15426.31;;;7.54;100.00
42285;BME280;27942;47.510;18.966;2022-11-04T07:28:04;-15424.78;;;7.49;100.00
42285;BME280;27942;47.510;18.966;2022-11-04T07:30:30;-15424.94;;;7.49;100.00
42285;BME280;27942;47.510;18.966;2022-11-04T07:32:55;-15421.81;;;7.39;100.00
42285;BME280;27942;47.510;18.966;2022-11-04T07:35:21;-15422.75;;;7.42;100.00
42285;BME280;27942;47.510;18.966;2022-11-04T07:37:46;-15420.44;;;7.34;100.00
42285;BME280;27942;47.510;18.966;2022-11-04T07:40:12;-15419.81;;;7.32;100.00
42285;BME280;27942;47.510;18.966;2022-11-04T07:42:37;-15417.78;;;7.26;100.00
42285;BME280;27942;47.510;18.966;2022-11-04T07:45:03;-15416.25;;;7.21;100.00
42285;BME280;27942;47.510;18.966;2022-11-04T07:47:32;-15412.50;;;7.08;100.00
42285;BME280;27942;47.510;18.966;2022-11-04T07:49:57;-15414.53;;;7.15;100.00
42285;BME280;27942;47.510;18.966;2022-11-04T07:52:23;-15415.31;;;7.17;100.00
42285;BME280;27942;47.510;18.966;2022-11-04T07:54:48;-15418.09;;;7.27;100.00
42285;BME280;27942;47.510;18.966;2022-11-04T07:57:14;-15418.72;;;7.29;100.00
42285;BME280;27942;47.510;18.966;2022-11-04T07:59:39;-15418.88;;;7.29;100.00
42285;BME280;27942;47.510;18.966;2022-11-04T08:02:05;-15415.78;;;7.19;100.00
42285;BME280;27942;47.510;18.966;2022-11-04T08:04:30;-15416.41;;;7.21;100.00
42285;BME280;27942;47.510;18.966;2022-11-04T08:06:56;-15415.31;;;7.17;100.00
42285;BME280;27942;47.510;18.966;2022-11-04T08:09:21;-15417.31;;;7.24;100.00
42285;BME280;27942;47.510;18.966;2022-11-04T08:11:47;-15417.16;;;7.24;100.00
42285;BME280;27942;47.510;18.966;2022-11-04T08:14:13;-15418.72;;;7.29;100.00
42285;BME280;27942;47.510;18.966;2022-11-04T08:16:39;-15419.66;;;7.32;100.00
42285;BME280;27942;47.510;18.966;2022-11-04T08:19:04;-15418.41;;;7.28;100.00
42285;BME280;27942;47.510;18.966;2022-11-04T08:21:31;-15414.06;;;7.13;100.00
42285;BME280;27942;47.510;18.966;2022-11-04T08:23:57;-15418.56;;;7.28;100.00
42285;BME280;27942;47.510;18.966;2022-11-04T08:26:22;-15415.63;;;7.18;100.00
42285;BME280;27942;47.510;18.966;2022-11-04T08:28:51;-15416.09;;;7.20;100.00
42285;BME280;27942;47.510;18.966;2022-11-04T08:31:17;-15415.31;;;7.17;100.00
42285;BME280;27942;47.510;18.966;2022-11-04T08:33:44;-15415.00;;;7.16;100.00
42285;BME280;27942;47.510;18.966;2022-11-04T08:36:14;-15419.66;;;7.32;100.00
42285;BME280;27942;47.510;18.966;2022-11-04T08:38:39;-15419.81;;;7.32;100.00
42285;BME280;27942;47.510;18.966;2022-11-04T08:41:07;-15418.25;;;7.27;100.00
42285;BME280;27942;47.510;18.966;2022-11-04T08:43:33;-15418.41;;;7.28;100.00
42285;BME280;27942;47.510;18.966;2022-11-04T08:45:59;-15420.13;;;7.33;100.00
42285;BME280;27942;47.510;18.966;2022-11-04T08:48:25;-15419.66;;;7.32;100.00
42285;BME280;27942;47.510;18.966;2022-11-04T08:50:52;-15419.66;;;7.32;100.00
42285;BME280;27942;47.510;18.966;2022-11-04T08:53:19;-15418.09;;;7.27;100.00
42285;BME280;27942;47.510;18.966;2022-11-04T08:55:44;-15417.63;;;7.25;100.00
42285;BME280;27942;47.510;18.966;2022-11-04T08:58:10;-15417.78;;;7.26;100.00
42285;BME280;27942;47.510;18.966;2022-11-04T09:00:35;-15416.25;;;7.21;100.00
42285;BME280;27942;47.510;18.966;2022-11-04T09:03:01;-15417.94;;;7.26;100.00
42285;BME280;27942;47.510;18.966;2022-11-04T09:05:26;-15419.97;;;7.33;100.00
42285;BME280;27942;47.510;18.966;2022-11-04T09:07:51;-15418.72;;;7.29;100.00
42285;BME280;27942;47.510;18.966;2022-11-04T09:10:17;-15423.69;;;7.45;100.00
42285;BME280;27942;47.510;18.966;2022-11-04T09:12:43;-15423.22;;;7.43;100.00
42285;BME280;27942;47.510;18.966;2022-11-04T09:15:09;-15423.38;;;7.44;100.00
42285;BME280;27942;47.510;18.966;2022-11-04T09:17:34;-15421.50;;;7.38;100.00
42285;BME280;27942;47.510;18.966;2022-11-04T09:20:00;-15421.81;;;7.39;100.00
42285;BME280;27942;47.510;18.966;2022-11-04T09:22:25;-15419.03;;;7.30;100.00
42285;BME280;27942;47.510;18.966;2022-11-04T09:24:51;-15419.19;;;7.30;100.00
42285;BME280;27942;47.510;18.966;2022-11-04T09:27:16;-15419.66;;;7.32;100.00
42285;BME280;27942;47.510;18.966;2022-11-04T09:29:41;-15418.72;;;7.29;100.00
42285;BME280;27942;47.510;18.966;2022-11-04T09:32:07;-15418.56;;;7.28;100.00
42285;BME280;27942;47.510;18.966;2022-11-04T09:34:33;-15417.31;;;7.24;100.00
42285;BME280;27942;47.510;18.966;2022-11-04T09:36:58;-15420.75;;;7.35;100.00
42285;BME280;27942;47.510;18.966;2022-11-04T09:39:24;-15418.88;;;7.29;100.00
42285;BME280;27942;47.510;18.966;2022-11-04T09:41:58;-15417.63;;;7.25;100.00
42285;BME280;27942;47.510;18.966;2022-11-04T09:44:35;-15412.97;;;7.10;100.00
42285;BME280;27942;47.510;18.966;2022-11-04T09:47:07;-15412.66;;;7.09;100.00
42285;BME280;27942;47.510;18.966;2022-11-04T09:49:36;-15412.22;;;7.07;100.00
42285;BME280;27942;47.510;18.966;2022-11-04T09:52:13;-15413.59;;;7.12;100.00
42285;BME280;27942;47.510;18.966;2022-11-04T09:55:00;-15414.06;;;7.13;100.00
42285;BME280;27942;47.510;18.966;2022-11-04T09:57:28;-15414.53;;;7.15;100.00
42285;BME280;27942;47.510;18.966;2022-11-04T09:59:54;-15415.00;;;7.16;100.00
42285;BME280;27942;47.510;18.966;2022-11-04T10:08:06;-15418.09;;;7.27;100.00
42285;BME280;27942;47.510;18.966;2022-11-04T10:10:50;-15417.16;;;7.24;100.00
42285;BME280;27942;47.510;18.966;2022-11-04T10:26:40;-15414.38;;;7.14;100.00
42285;BME280;27942;47.510;18.966;2022-11-04T10:29:13;-15415.63;;;7.18;100.00
42285;BME280;27942;47.510;18.966;2022-11-04T10:31:42;-15412.22;;;7.07;100.00
42285;BME280;27942;47.510;18.966;2022-11-04T10:34:43;-15416.09;;;7.20;100.00
42285;BME280;27942;47.510;18.966;2022-11-04T10:37:11;-15416.25;;;7.21;100.00
42285;BME280;27942;47.510;18.966;2022-11-04T10:39:42;-15418.56;;;7.28;100.00
42285;BME280;27942;47.510;18.966;2022-11-04T10:42:11;-15417.63;;;7.25;100.00
42285;BME280;27942;47.510;18.966;2022-11-04T10:44:37;-15413.44;;;7.11;100.00
42285;BME280;27942;47.510;18.966;2022-11-04T10:47:31;-15417.31;;;7.24;100.00
42285;BME280;27942;47.510;18.966;2022-11-04T10:50:13;-15415.78;;;7.19;100.00
42285;BME280;27942;47.510;18.966;2022-11-04T10:52:41;-15415.00;;;7.16;100.00
42285;BME280;27942;47.510;18.966;2022-11-04T10:55:27;-15415.94;;;7.20;100.00
42285;BME280;27942;47.510;18.966;2022-11-04T10:57:58;-15416.09;;;7.20;100.00
42285;BME280;27942;47.510;18.966;2022-11-04T11:00:38;-15418.56;;;7.28;100.00
42285;BME280;27942;47.510;18.966;2022-11-04T11:03:25;-15419.50;;;7.31;100.00
42285;BME280;27942;47.510;18.966;2022-11-04T11:05:52;-15419.66;;;7.32;100.00
42285;BME280;27942;47.510;18.966;2022-11-04T11:08:32;-15419.81;;;7.32;100.00
42285;BME280;27942;47.510;18.966;2022-11-04T11:10:58;-15423.22;;;7.43;100.00
42285;BME280;27942;47.510;18.966;2022-11-04T11:13:26;-15422.13;;;7.40;100.00
42285;BME280;27942;47.510;18.966;2022-11-04T11:18:36;-15424.47;;;7.48;100.00
42285;BME280;27942;47.510;18.966;2022-11-04T11:21:12;-15422.59;;;7.41;100.00
42285;BME280;27942;47.510;18.966;2022-11-04T11:26:09;-15424.78;;;7.49;100.00
42285;BME280;27942;47.510;18.966;2022-11-04T11:28:38;-15425.22;;;7.50;100.00
42285;BME280;27942;47.510;18.966;2022-11-04T11:31:10;-15425.09;;;7.50;100.00
42285;BME280;27942;47.510;18.966;2022-11-04T11:33:52;-15427.56;;;7.58;100.00
42285;BME280;27942;47.510;18.966;2022-11-04T11:36:22;-15427.41;;;7.57;100.00
42285;BME280;27942;47.510;18.966;2022-11-04T11:41:22;-15425.22;;;7.50;100.00
42285;BME280;27942;47.510;18.966;2022-11-04T11:43:57;-15425.53;;;7.51;100.00
42285;BME280;27942;47.510;18.966;2022-11-04T11:46:24;-15425.84;;;7.52;100.00
42285;BME280;27942;47.510;18.966;2022-11-04T11:48:55;-15424.94;;;7.49;100.00
42285;BME280;27942;47.510;18.966;2022-11-04T11:51:36;-15426.31;;;7.54;100.00
42285;BME280;27942;47.510;18.966;2022-11-04T11:54:22;-15425.69;;;7.52;100.00
42285;BME280;27942;47.510;18.966;2022-11-04T11:56:55;-15428.66;;;7.61;100.00
42285;BME280;27942;47.510;18.966;2022-11-04T11:59:48;-15430.81;;;7.68;100.00
42285;BME280;27942;47.510;18.966;2022-11-04T12:05:00;-15431.44;;;7.71;100.00
42285;BME280;27942;47.510;18.966;2022-11-04T12:07:32;-15432.06;;;7.73;100.00
42285;BME280;27942;47.510;18.966;2022-11-04T12:10:10;-15430.81;;;7.68;100.00
42285;BME280;27942;47.510;18.966;2022-11-04T12:13:15;-15430.19;;;7.66;100.00
42285;BME280;27942;47.510;18.966;2022-11-04T12:21:40;-15432.38;;;7.74;100.00
42285;BME280;27942;47.510;18.966;2022-11-04T12:27:12;-15434.22;;;7.80;100.00
42285;BME280;27942;47.510;18.966;2022-11-04T12:30:00;-15434.06;;;7.79;100.00
42285;BME280;27942;47.510;18.966;2022-11-04T12:32:59;-15437.19;;;7.89;100.00
42285;BME280;27942;47.510;18.966;2022-11-04T12:38:14;-15434.84;;;7.82;100.00
42285;BME280;27942;47.510;18.966;2022-11-04T12:40:57;-15435.63;;;7.84;100.00
42285;BME280;27942;47.510;18.966;2022-11-04T12:46:20;-15438.25;;;7.93;100.00
42285;BME280;27942;47.510;18.966;2022-11-04T12:54:30;-15440.44;;;8.00;100.00
42285;BME280;27942;47.510;18.966;2022-11-04T12:57:10;-15440.75;;;8.01;100.00
42285;BME280;27942;47.510;18.966;2022-11-04T12:59:40;-15441.53;;;8.04;100.00
42285;BME280;27942;47.510;18.966;2022-11-04T13:02:15;-15439.03;;;7.96;100.00
42285;BME280;27942;47.510;18.966;2022-11-04T13:05:06;-15438.41;;;7.93;100.00
42285;BME280;27942;47.510;18.966;2022-11-04T13:07:50;-15437.81;;;7.91;100.00
42285;BME280;27942;47.510;18.966;2022-11-04T13:10:22;-15437.34;;;7.90;100.00
42285;BME280;27942;47.510;18.966;2022-11-04T13:12:51;-15439.97;;;7.99;100.00
42285;BME280;27942;47.510;18.966;2022-11-04T13:15:22;-15438.88;;;7.95;100.00
42285;BME280;27942;47.510;18.966;2022-11-04T13:17:52;-15439.50;;;7.97;100.00
42285;BME280;27942;47.510;18.966;2022-11-04T13:20:30;-15442.31;;;8.06;100.00
42285;BME280;27942;47.510;18.966;2022-11-04T13:23:03;-15440.75;;;8.01;100.00
42285;BME280;27942;47.510;18.966;2022-11-04T13:25:40;-15441.38;;;8.03;100.00
42285;BME280;27942;47.510;18.966;2022-11-04T13:28:12;-15440.44;;;8.00;100.00
42285;BME280;27942;47.510;18.966;2022-11-04T13:30:47;-15438.56;;;7.94;100.00
42285;BME280;27942;47.510;18.966;2022-11-04T13:33:17;-15441.84;;;8.05;100.00
42285;BME280;27942;47.510;18.966;2022-11-04T13:43:51;-15439.97;;;7.99;100.00
42285;BME280;27942;47.510;18.966;2022-11-04T13:51:47;-15443.22;;;8.09;100.00
42285;BME280;27942;47.510;18.966;2022-11-04T13:54:28;-15444.16;;;8.12;100.00
42285;BME280;27942;47.510;18.966;2022-11-04T13:57:25;-15443.22;;;8.09;100.00
42285;BME280;27942;47.510;18.966;2022-11-04T14:18:49;-15442.47;;;8.07;100.00
42285;BME280;27942;47.510;18.966;2022-11-04T14:21:17;-15444.63;;;8.14;100.00
42285;BME280;27942;47.510;18.966;2022-11-04T14:23:49;-15444.47;;;8.13;100.00
42285;BME280;27942;47.510;18.966;2022-11-04T14:26:18;-15443.84;;;8.11;100.00
42285;BME280;27942;47.510;18.966;2022-11-04T14:28:47;-15445.41;;;8.16;100.00
42285;BME280;27942;47.510;18.966;2022-11-04T14:31:14;-15445.41;;;8.16;100.00
42285;BME280;27942;47.510;18.966;2022-11-04T14:33:57;-15445.72;;;8.17;100.00
42285;BME280;27942;47.510;18.966;2022-11-04T14:39:21;-15445.56;;;8.17;100.00
42285;BME280;27942;47.510;18.966;2022-11-04T14:41:52;-15448.81;;;8.28;100.00
42285;BME280;27942;47.510;18.966;2022-11-04T14:44:40;-15448.97;;;8.28;100.00